Time;durP1;ratioP1;P1;durP2;ratioP2;P2;SDS_P1;SDS_P2;PMS_P1;PMS_P2;Temp;Humidity;BMP_temperature;BMP_pressure;BME280_temperature;BME280_humidity;BME280_pressure;Samples;Min_cycle;Max_cycle;Signal;HPM_P1;HPM_P2
2021/01/26 00:02:11;;;;;;;10.93;8.52;;;0.50;99.90;;;;;;5053801;28;20078;-76
2021/01/26 00:04:37;;;;;;;11.85;9.07;;;0.50;99.90;;;;;;5054287;28;20051;-76
2021/01/26 00:07:03;;;;;;;11.98;9.43;;;0.60;99.90;;;;;;5053862;28;20029;-76
2021/01/26 00:09:29;;;;;;;12.32;8.93;;;0.70;99.90;;;;;;5054045;28;20060;-76
2021/01/26 00:11:55;;;;;;;15.00;8.68;;;0.60;99.90;;;;;;5035637;28;20068;-76
2021/01/26 00:14:20;;;;;;;14.60;10.00;;;0.50;99.90;;;;;;5053793;28;20530;-76
2021/01/26 00:16:47;;;;;;;11.98;8.77;;;0.60;99.90;;;;;;5053656;28;20074;-77
2021/01/26 00:19:13;;;;;;;13.20;9.05;;;0.60;99.90;;;;;;5053949;28;20028;-77
2021/01/26 00:21:39;;;;;;;11.85;8.52;;;0.70;99.90;;;;;;5053520;28;20033;-76
2021/01/26 00:24:05;;;;;;;13.05;8.40;;;0.60;99.90;;;;;;5053684;28;20032;-76
2021/01/26 00:26:30;;;;;;;11.82;8.75;;;0.50;99.90;;;;;;5053428;28;20044;-76
2021/01/26 00:28:56;;;;;;;15.55;8.95;;;0.60;99.90;;;;;;5053654;28;20108;-76
2021/01/26 00:31:22;;;;;;;12.35;9.35;;;0.70;99.90;;;;;;5053056;28;20431;-76
2021/01/26 00:33:48;;;;;;;11.25;9.05;;;0.60;99.90;;;;;;5035580;28;20021;-76
2021/01/26 00:36:13;;;;;;;14.35;10.25;;;0.50;99.90;;;;;;5053423;28;20025;-75
2021/01/26 00:38:39;;;;;;;12.77;9.68;;;0.50;99.90;;;;;;5035398;28;20025;-76
2021/01/26 00:41:05;;;;;;;13.43;8.52;;;0.40;99.90;;;;;;5053313;28;20443;-76
2021/01/26 00:43:30;;;;;;;12.13;8.02;;;0.40;99.90;;;;;;5035237;28;20025;-76
2021/01/26 00:45:56;;;;;;;9.85;7.80;;;0.50;99.90;;;;;;5052690;28;20025;-76
2021/01/26 00:48:22;;;;;;;10.18;8.23;;;0.30;99.90;;;;;;5035159;28;20029;-77
2021/01/26 00:50:47;;;;;;;10.57;8.38;;;0.40;99.90;;;;;;5034997;28;20542;-77
2021/01/26 00:53:14;;;;;;;12.82;8.95;;;0.50;99.90;;;;;;5035196;28;20028;-76
2021/01/26 00:55:41;;;;;;;12.35;8.77;;;0.40;99.90;;;;;;5053016;28;20104;-77
2021/01/26 00:58:07;;;;;;;13.40;9.07;;;0.40;99.90;;;;;;5053027;28;20017;-76
2021/01/26 01:00:35;;;;;;;10.65;8.23;;;0.60;99.90;;;;;;5052943;28;20028;-76
2021/01/26 01:03:02;;;;;;;12.13;9.15;;;0.60;99.90;;;;;;5034936;28;20024;-75
2021/01/26 01:05:28;;;;;;;12.63;9.27;;;0.40;99.90;;;;;;5034848;28;20082;-77
2021/01/26 01:07:54;;;;;;;12.25;9.23;;;0.40;99.90;;;;;;5052697;28;20528;-76
2021/01/26 01:10:26;;;;;;;12.93;9.05;;;0.40;99.90;;;;;;5052740;28;20074;-77
2021/01/26 01:12:52;;;;;;;12.63;8.93;;;0.30;99.90;;;;;;5052599;28;20017;-76
2021/01/26 01:15:19;;;;;;;11.73;8.82;;;0.30;99.90;;;;;;5052565;28;20031;-76
2021/01/26 01:17:46;;;;;;;12.93;9.32;;;0.30;99.90;;;;;;5052907;28;20048;-76
2021/01/26 01:20:14;;;;;;;12.30;8.60;;;0.30;99.90;;;;;;5052758;28;20025;-76
2021/01/26 01:22:40;;;;;;;11.45;9.30;;;0.40;99.90;;;;;;5018293;28;20115;-76
2021/01/26 01:25:06;;;;;;;13.25;8.88;;;0.20;99.90;;;;;;5034262;28;20124;-76
2021/01/26 01:27:32;;;;;;;13.05;8.43;;;0.00;99.90;;;;;;5034630;28;20036;-76
2021/01/26 01:29:58;;;;;;;11.70;7.80;;;-0.10;99.90;;;;;;5017988;28;20033;-76
2021/01/26 01:32:24;;;;;;;12.10;9.23;;;0.00;99.90;;;;;;5052537;28;20029;-76
2021/01/26 01:34:49;;;;;;;12.35;9.27;;;0.10;99.90;;;;;;5052059;28;20101;-76
2021/01/26 01:37:15;;;;;;;12.95;8.80;;;0.10;99.90;;;;;;5052889;28;20032;-76
2021/01/26 01:39:41;;;;;;;13.40;9.85;;;0.00;99.90;;;;;;5034642;28;20021;-77
2021/01/26 01:42:08;;;;;;;13.05;10.15;;;-0.10;99.90;;;;;;5034676;28;20455;-76
2021/01/26 01:44:35;;;;;;;13.07;9.23;;;-0.10;99.90;;;;;;5051903;28;20078;-76
2021/01/26 01:47:03;;;;;;;14.75;10.68;;;-0.10;99.90;;;;;;5052261;28;20090;-76
2021/01/26 01:49:37;;;;;;;15.23;10.48;;;-0.20;99.90;;;;;;5017492;28;20438;-77
2021/01/26 01:52:04;;;;;;;14.90;10.50;;;-0.10;99.90;;;;;;5051884;28;20032;-77
2021/01/26 01:54:39;;;;;;;16.88;11.48;;;-0.10;99.90;;;;;;5051610;28;20443;-76
2021/01/26 01:57:19;;;;;;;18.95;12.25;;;-0.30;99.90;;;;;;5051874;28;20526;-77
2021/01/26 01:59:51;;;;;;;16.40;11.90;;;-0.20;99.90;;;;;;5051068;28;20021;-77
2021/01/26 02:02:18;;;;;;;17.70;11.90;;;-0.20;99.90;;;;;;5033908;28;20032;-76
2021/01/26 02:04:44;;;;;;;18.23;12.20;;;-0.30;99.90;;;;;;5051624;28;20047;-77
2021/01/26 02:07:11;;;;;;;16.95;12.05;;;0.00;99.90;;;;;;5033813;28;20025;-77
2021/01/26 02:09:39;;;;;;;16.10;11.50;;;0.00;99.90;;;;;;5051740;28;20448;-76
2021/01/26 02:12:06;;;;;;;21.58;13.38;;;0.00;99.90;;;;;;5051460;28;20052;-76
2021/01/26 02:14:39;;;;;;;18.67;12.27;;;0.00;99.90;;;;;;5051633;28;20023;-76
2021/01/26 02:17:17;;;;;;;16.05;11.40;;;0.00;99.90;;;;;;5033521;28;20035;-77
2021/01/26 02:20:03;;;;;;;15.70;10.88;;;0.00;99.90;;;;;;5052075;28;20017;-77
2021/01/26 02:23:07;;;;;;;16.75;11.90;;;0.00;99.90;;;;;;5033348;28;20106;-77
2021/01/26 02:26:06;;;;;;;19.08;12.32;;;0.00;99.90;;;;;;5051294;28;20110;-76
2021/01/26 02:28:51;;;;;;;17.35;11.98;;;0.10;99.90;;;;;;5033486;28;20029;-77
2021/01/26 02:31:33;;;;;;;16.48;12.10;;;0.00;99.90;;;;;;5033313;28;20103;-77
2021/01/26 02:34:36;;;;;;;17.98;12.38;;;0.00;99.90;;;;;;5051318;28;20111;-77
2021/01/26 02:37:26;;;;;;;19.17;12.07;;;0.10;99.90;;;;;;5050976;28;20029;-75
2021/01/26 02:40:11;;;;;;;18.85;12.88;;;0.20;99.90;;;;;;5051085;28;20036;-76
2021/01/26 02:43:13;;;;;;;20.20;14.05;;;0.00;99.90;;;;;;5051097;28;20035;-76
2021/01/26 02:45:45;;;;;;;23.92;14.27;;;0.00;99.90;;;;;;5035499;28;20033;-76
2021/01/26 02:48:26;;;;;;;;;;;0.00;99.90;;;;;;5051265;28;20071;-76
2021/01/26 02:51:05;;;;;;;19.60;12.48;;;-0.10;99.90;;;;;;5050952;28;19909;-76
2021/01/26 02:54:34;;;;;;;19.52;12.60;;;-0.10;99.90;;;;;;5032873;28;20021;-76
2021/01/26 02:57:10;;;;;;;20.80;14.23;;;-0.20;99.90;;;;;;4953450;28;20033;-76
2021/01/26 02:59:54;;;;;;;21.27;13.82;;;-0.20;99.90;;;;;;4969962;28;20506;-76
2021/01/26 03:02:53;;;;;;;24.77;14.77;;;-0.20;99.90;;;;;;5022450;28;20045;-76
2021/01/26 03:05:29;;;;;;;23.05;13.98;;;-0.10;99.90;;;;;;5050827;28;20021;-76
2021/01/26 03:08:00;;;;;;;24.35;13.82;;;0.00;99.90;;;;;;5051019;28;20021;-77
2021/01/26 03:10:37;;;;;;;21.45;14.52;;;-0.10;99.90;;;;;;5050630;28;20024;-77
2021/01/26 03:13:08;;;;;;;21.02;13.15;;;0.00;99.90;;;;;;5032720;28;20028;-76
2021/01/26 03:15:42;;;;;;;20.58;14.07;;;0.20;99.90;;;;;;5050721;28;20017;-77
2021/01/26 03:18:13;;;;;;;21.40;13.55;;;0.10;99.90;;;;;;5050791;28;20060;-76
2021/01/26 03:20:43;;;;;;;24.30;14.32;;;0.20;99.90;;;;;;5051423;28;20048;-76
2021/01/26 03:23:26;;;;;;;18.63;13.10;;;0.20;99.90;;;;;;5051206;28;20025;-76
2021/01/26 03:25:53;;;;;;;22.40;14.82;;;0.20;99.90;;;;;;5033296;28;20109;-76
2021/01/26 03:28:24;;;;;;;21.70;14.40;;;0.30;99.90;;;;;;5050648;28;20032;-76
2021/01/26 03:30:52;;;;;;;26.35;15.45;;;0.40;99.90;;;;;;5050589;28;20488;-77
2021/01/26 03:33:41;;;;;;;19.15;12.73;;;0.40;99.90;;;;;;5050577;28;20054;-78
2021/01/26 03:36:07;;;;;;;19.33;12.95;;;0.30;99.90;;;;;;5050517;28;20029;-76
2021/01/26 03:38:33;;;;;;;20.77;13.57;;;0.20;99.90;;;;;;5050368;28;20108;-76
2021/01/26 03:41:01;;;;;;;17.10;12.48;;;0.30;99.90;;;;;;5032631;28;20497;-76
2021/01/26 03:43:27;;;;;;;27.20;13.75;;;0.20;99.90;;;;;;5050559;28;20384;-76
2021/01/26 03:45:59;;;;;;;16.40;11.60;;;0.20;99.90;;;;;;5032157;28;20025;-76
2021/01/26 03:48:40;;;;;;;18.65;11.80;;;0.10;99.90;;;;;;5050562;28;20147;-76
2021/01/26 03:51:08;;;;;;;20.00;12.57;;;0.10;99.90;;;;;;5050056;28;20060;-77
2021/01/26 03:54:12;;;;;;;17.75;11.68;;;0.20;99.90;;;;;;5050323;28;20257;-76
2021/01/26 03:56:49;;;;;;;16.40;11.57;;;0.10;99.90;;;;;;5032295;28;20028;-76
2021/01/26 03:59:32;;;;;;;18.98;11.70;;;0.20;99.90;;;;;;5050328;28;20025;-76
2021/01/26 04:02:13;;;;;;;19.17;12.38;;;0.00;99.90;;;;;;5050243;28;20554;-76
2021/01/26 04:05:07;;;;;;;15.20;11.05;;;0.10;99.90;;;;;;5049903;28;20107;-77
2021/01/26 04:07:41;;;;;;;23.20;12.68;;;0.10;99.90;;;;;;5050240;28;20036;-76
2021/01/26 04:10:29;;;;;;;20.13;13.43;;;0.30;99.90;;;;;;5050004;28;20017;-76
2021/01/26 04:13:04;;;;;;;19.02;12.25;;;0.40;99.90;;;;;;5032227;28;20569;-76
2021/01/26 04:15:35;;;;;;;17.92;11.82;;;0.40;99.90;;;;;;5049992;28;20071;-76
2021/01/26 04:18:01;;;;;;;15.25;10.93;;;0.40;99.90;;;;;;5050192;28;20384;-76
2021/01/26 04:20:31;;;;;;;19.17;11.75;;;0.30;99.90;;;;;;5032061;28;20033;-77
2021/01/26 04:22:58;;;;;;;17.23;10.38;;;0.30;99.90;;;;;;5053115;28;20052;-76
2021/01/26 04:25:32;;;;;;;18.67;12.05;;;0.30;99.90;;;;;;5053429;28;20029;-76
2021/01/26 04:27:59;;;;;;;18.40;11.02;;;0.40;99.90;;;;;;5053643;28;20053;-77
2021/01/26 04:30:25;;;;;;;17.10;10.63;;;0.30;99.90;;;;;;5053585;28;20028;-76
2021/01/26 04:33:00;;;;;;;18.35;11.15;;;0.30;99.90;;;;;;5053278;28;20115;-76
2021/01/26 04:35:26;;;;;;;15.07;9.70;;;0.30;99.90;;;;;;5053341;28;20079;-78
2021/01/26 04:37:53;;;;;;;19.67;10.63;;;0.20;99.90;;;;;;5053186;28;20029;-77
2021/01/26 04:40:19;;;;;;;17.13;11.63;;;0.20;99.90;;;;;;5053390;28;20499;-76
2021/01/26 04:42:49;;;;;;;17.30;10.57;;;0.20;99.90;;;;;;5053214;28;20032;-76
2021/01/26 04:45:22;;;;;;;16.83;11.50;;;0.10;99.90;;;;;;5053262;28;20021;-77
2021/01/26 04:47:54;;;;;;;15.48;10.15;;;0.20;99.90;;;;;;5053241;28;20536;-76
2021/01/26 04:50:56;;;;;;;16.48;11.35;;;0.20;99.90;;;;;;5053518;28;20550;-76
2021/01/26 04:53:46;;;;;;;12.37;8.73;;;0.20;99.90;;;;;;5053560;28;20057;-76
2021/01/26 04:56:20;;;;;;;12.70;8.77;;;0.10;99.90;;;;;;5053527;28;20279;-75
2021/01/26 04:58:54;;;;;;;13.02;8.63;;;0.10;99.90;;;;;;5053211;28;20143;-76
2021/01/26 05:01:29;;;;;;;13.70;8.57;;;0.00;99.90;;;;;;5053172;28;20013;-76
2021/01/26 05:04:04;;;;;;;15.60;9.05;;;-0.10;99.90;;;;;;5052779;28;20029;-77
2021/01/26 05:06:41;;;;;;;14.90;8.60;;;0.10;99.90;;;;;;5052922;28;20028;-75
2021/01/26 05:09:14;;;;;;;15.93;9.52;;;0.10;99.90;;;;;;5034957;28;20423;-77
2021/01/26 05:11:43;;;;;;;20.70;10.18;;;0.20;99.90;;;;;;5052742;28;20082;-75
2021/01/26 05:14:26;;;;;;;14.48;8.88;;;0.10;99.90;;;;;;5034529;28;20557;-76
2021/01/26 05:16:58;;;;;;;16.00;9.63;;;0.10;99.90;;;;;;5034835;28;20095;-76
2021/01/26 05:19:42;;;;;;;13.45;8.43;;;0.10;99.90;;;;;;5052671;28;20085;-76
2021/01/26 05:22:26;;;;;;;16.92;10.30;;;0.20;99.90;;;;;;5052616;28;20508;-76
2021/01/26 05:25:13;;;;;;;18.35;9.90;;;0.10;99.90;;;;;;5052499;28;20163;-76
2021/01/26 05:27:39;;;;;;;17.35;9.57;;;-0.10;99.90;;;;;;5052442;28;20041;-75
2021/01/26 05:30:10;;;;;;;20.88;12.43;;;-0.10;99.90;;;;;;5052485;28;20032;-75
2021/01/26 05:32:41;;;;;;;17.48;11.23;;;-0.30;99.90;;;;;;5051552;28;20025;-76
2021/01/26 05:35:07;;;;;;;26.07;11.53;;;-0.20;99.90;;;;;;5051911;28;20032;-77
2021/01/26 05:37:33;;;;;;;15.35;10.05;;;-0.20;99.90;;;;;;5052132;28;20492;-76
2021/01/26 05:40:15;;;;;;;16.17;11.02;;;-0.30;99.90;;;;;;5067635;23;20052;-74
2021/01/26 05:42:43;;;;;;;21.63;11.50;;;-0.40;99.90;;;;;;5071982;28;20032;-75
2021/01/26 05:45:19;;;;;;;14.80;11.25;;;-0.40;99.90;;;;;;5054163;28;20036;-75
2021/01/26 05:47:45;;;;;;;18.48;11.05;;;-0.40;99.90;;;;;;5071874;28;20021;-74
2021/01/26 05:50:24;;;;;;;20.15;11.73;;;-0.50;99.90;;;;;;5037287;28;20061;-75
2021/01/26 05:52:50;;;;;;;15.23;10.77;;;-0.50;99.90;;;;;;5054467;28;20028;-74
2021/01/26 05:55:25;;;;;;;18.83;12.25;;;-0.50;99.90;;;;;;5071787;28;20020;-75
2021/01/26 05:57:52;;;;;;;32.00;12.05;;;-0.50;99.90;;;;;;5071613;28;20013;-76
2021/01/26 06:00:23;;;;;;;15.18;10.65;;;-0.70;99.90;;;;;;5054175;28;20032;-75
2021/01/26 06:03:14;;;;;;;13.63;8.70;;;-0.70;99.90;;;;;;5037168;28;20090;-75
2021/01/26 06:05:40;;;;;;;17.67;10.80;;;-0.70;99.90;;;;;;5053848;28;20052;-76
2021/01/26 06:08:14;;;;;;;16.45;10.48;;;-0.70;99.90;;;;;;5071761;28;20031;-75
2021/01/26 06:10:44;;;;;;;22.30;11.60;;;-0.60;99.90;;;;;;5053316;28;20044;-75
2021/01/26 06:13:11;;;;;;;19.60;11.43;;;-0.70;99.90;;;;;;5036956;28;20094;-75
2021/01/26 06:15:39;;;;;;;22.70;12.00;;;-0.80;99.90;;;;;;5036677;28;20017;-75
2021/01/26 06:18:14;;;;;;;18.23;11.93;;;-0.80;99.90;;;;;;5071486;28;20032;-75
2021/01/26 06:20:41;;;;;;;23.33;12.27;;;-0.80;99.90;;;;;;5072013;28;20360;-75
2021/01/26 06:23:20;;;;;;;20.50;12.90;;;-0.80;99.90;;;;;;5037020;28;20024;-76
2021/01/26 06:25:53;;;;;;;18.55;10.23;;;-0.80;99.90;;;;;;5071035;28;20513;-76
2021/01/26 06:28:44;;;;;;;22.77;12.43;;;-1.00;99.90;;;;;;5071429;28;20020;-76
2021/01/26 06:31:22;;;;;;;24.83;12.43;;;-1.00;99.90;;;;;;5071061;28;20498;-76
2021/01/26 06:34:23;;;;;;;22.00;12.32;;;-1.20;99.90;;;;;;5071300;28;20104;-76
2021/01/26 06:36:57;;;;;;;18.92;12.60;;;-1.20;99.90;;;;;;4973553;28;20485;-75
2021/01/26 06:39:34;;;;;;;21.63;12.23;;;-1.20;99.90;;;;;;5041454;28;20127;-75
2021/01/26 06:42:18;;;;;;;21.65;12.90;;;-1.10;99.90;;;;;;5036537;28;20135;-75
2021/01/26 06:44:52;;;;;;;22.80;13.98;;;-1.10;99.90;;;;;;5081124;28;20016;-75
2021/01/26 06:47:44;;;;;;;27.77;13.98;;;-1.00;99.90;;;;;;5063230;28;20052;-75
2021/01/26 06:50:17;;;;;;;;;;;-1.10;99.90;;;;;;5052739;28;20427;-75
2021/01/26 06:52:48;;;;;;;22.65;13.00;;;-1.20;99.90;;;;;;5072034;28;19908;-75
2021/01/26 06:55:37;;;;;;;26.45;13.13;;;-1.30;99.90;;;;;;5053029;28;20039;-76
2021/01/26 06:58:17;;;;;;;18.58;12.02;;;-1.10;99.90;;;;;;5016247;28;20028;-75
2021/01/26 07:00:49;;;;;;;34.03;13.48;;;-1.10;99.90;;;;;;5085550;28;20475;-75
2021/01/26 07:03:18;;;;;;;;;;;-1.10;99.90;;;;;;5056550;28;20016;-75
2021/01/26 07:06:02;;;;;;;18.88;11.65;;;-1.20;99.90;;;;;;5090570;28;20260;-75
2021/01/26 07:08:47;;;;;;;21.77;12.18;;;-1.20;99.90;;;;;;5074646;28;20086;-76
2021/01/26 07:11:40;;;;;;;18.55;11.50;;;-1.30;99.90;;;;;;5052323;28;20025;-75
2021/01/26 07:14:15;;;;;;;19.15;11.43;;;-1.30;99.90;;;;;;5070667;28;20131;-75
2021/01/26 07:16:43;;;;;;;23.13;12.30;;;-1.30;99.90;;;;;;5052543;28;20073;-75
2021/01/26 07:19:38;;;;;;;23.25;12.40;;;-1.20;99.90;;;;;;5053059;28;20052;-76
2021/01/26 07:22:27;;;;;;;18.55;11.38;;;-1.30;99.90;;;;;;4981736;28;20031;-75
2021/01/26 07:25:13;;;;;;;18.10;10.63;;;-1.30;99.90;;;;;;5003171;28;20048;-75
2021/01/26 07:28:01;;;;;;;15.18;9.85;;;-1.30;99.90;;;;;;5031623;28;20029;-75
2021/01/26 07:30:49;;;;;;;14.55;9.82;;;-1.30;99.90;;;;;;5032188;28;20381;-75
2021/01/26 07:33:29;;;;;;;14.07;10.05;;;-1.40;99.90;;;;;;5031501;28;20025;-76
2021/01/26 07:36:25;;;;;;;14.85;10.10;;;-1.40;99.90;;;;;;5031858;28;20025;-75
2021/01/26 07:39:29;;;;;;;14.73;8.55;;;-1.30;99.90;;;;;;5049574;28;20424;-75
2021/01/26 07:42:08;;;;;;;12.55;7.38;;;-1.30;99.90;;;;;;5067583;28;20561;-75
2021/01/26 07:44:58;;;;;;;15.07;8.95;;;-1.40;99.90;;;;;;5046981;28;20017;-75
2021/01/26 07:47:30;;;;;;;14.00;7.68;;;-1.30;99.90;;;;;;5069948;28;20418;-75
2021/01/26 07:50:01;;;;;;;25.88;8.90;;;-1.30;99.90;;;;;;5034603;28;20017;-76
2021/01/26 07:52:32;;;;;;;12.25;8.00;;;-1.20;99.90;;;;;;5051910;28;20032;-75
2021/01/26 07:55:07;;;;;;;12.48;8.18;;;-1.20;99.90;;;;;;5068788;28;20086;-75
2021/01/26 07:58:02;;;;;;;11.30;7.38;;;-1.10;99.90;;;;;;5053506;28;20028;-75
2021/01/26 08:00:31;;;;;;;14.07;8.15;;;-1.10;99.90;;;;;;5072028;28;20463;-75
2021/01/26 08:02:59;;;;;;;20.92;8.00;;;-1.20;99.90;;;;;;5072880;28;20027;-75
2021/01/26 08:05:43;;;;;;;16.38;7.60;;;-1.10;99.90;;;;;;5072621;28;20395;-75
2021/01/26 08:08:26;;;;;;;10.63;6.82;;;-1.10;99.90;;;;;;5068479;28;20028;-75
2021/01/26 08:11:20;;;;;;;14.27;9.30;;;-1.20;99.90;;;;;;5055386;28;20028;-76
2021/01/26 08:13:55;;;;;;;19.63;9.23;;;-1.50;99.90;;;;;;5072471;28;20028;-75
2021/01/26 08:16:28;;;;;;;18.10;9.23;;;-1.60;99.90;;;;;;5072505;28;20078;-76
2021/01/26 08:18:54;;;;;;;14.65;9.60;;;-1.50;99.90;;;;;;5062764;28;20017;-75
2021/01/26 08:21:35;;;;;;;16.75;9.38;;;-1.50;99.90;;;;;;5057914;28;20090;-75
2021/01/26 08:24:22;;;;;;;26.52;8.40;;;-1.40;99.90;;;;;;5052583;28;20013;-76
2021/01/26 08:26:55;;;;;;;22.00;8.48;;;-1.30;99.90;;;;;;5039309;28;20677;-75
2021/01/26 08:29:47;;;;;;;53.30;10.75;;;-1.20;99.90;;;;;;5038892;28;20056;-76
2021/01/26 08:32:25;;;;;;;29.27;9.73;;;-1.30;99.90;;;;;;5044420;28;20033;-75
2021/01/26 08:35:01;;;;;;;37.63;9.30;;;-1.20;99.90;;;;;;5027742;28;20389;-75
2021/01/26 08:37:43;;;;;;;42.95;9.50;;;-1.30;99.90;;;;;;5054186;28;20445;-76
2021/01/26 08:40:15;;;;;;;15.32;8.07;;;-1.40;99.90;;;;;;5040264;28;20025;-75
2021/01/26 08:42:41;;;;;;;28.55;11.63;;;-1.40;99.90;;;;;;5065071;28;20048;-76
2021/01/26 08:45:25;;;;;;;23.02;8.88;;;-1.40;99.90;;;;;;5043158;28;20270;-75
2021/01/26 08:47:55;;;;;;;17.25;8.60;;;-1.50;99.90;;;;;;5048531;28;20029;-75
2021/01/26 08:50:26;;;;;;;18.80;7.13;;;-1.50;99.90;;;;;;5023784;28;20024;-75
2021/01/26 08:52:56;;;;;;;19.65;9.25;;;-1.50;99.90;;;;;;5069820;28;20475;-75
2021/01/26 08:55:56;;;;;;;15.82;8.13;;;-1.50;99.90;;;;;;5065733;28;20383;-75
2021/01/26 08:58:37;;;;;;;77.63;10.93;;;-1.60;99.90;;;;;;4997979;28;20064;-75
2021/01/26 09:01:03;;;;;;;61.50;9.57;;;-1.60;99.90;;;;;;5057329;28;20108;-75
2021/01/26 09:03:32;;;;;;;19.33;8.25;;;-1.60;99.90;;;;;;5069222;28;20032;-75
2021/01/26 09:06:26;;;;;;;35.45;9.18;;;-1.60;99.90;;;;;;5061553;28;20032;-75
2021/01/26 09:08:56;;;;;;;40.05;8.88;;;-1.70;99.90;;;;;;5020205;28;20330;-75
2021/01/26 09:11:45;;;;;;;15.77;7.55;;;-1.60;99.90;;;;;;5035612;28;20025;-75
2021/01/26 09:14:45;;;;;;;13.95;8.35;;;-1.50;99.90;;;;;;5033289;28;20017;-74
2021/01/26 09:17:18;;;;;;;22.25;7.85;;;-1.50;99.90;;;;;;5019864;28;20032;-75
2021/01/26 09:19:51;;;;;;;15.95;8.38;;;-1.50;99.90;;;;;;5057342;28;20025;-75
2021/01/26 09:22:26;;;;;;;29.88;8.73;;;-1.70;99.90;;;;;;5070774;28;20090;-75
2021/01/26 09:25:10;;;;;;;31.33;13.20;;;-1.80;99.90;;;;;;5038209;28;20437;-75
2021/01/26 09:27:36;;;;;;;18.35;8.23;;;-1.60;99.90;;;;;;5038204;28;20476;-75
2021/01/26 09:30:14;;;;;;;27.30;9.43;;;-1.60;99.90;;;;;;5061195;28;20025;-75
2021/01/26 09:32:42;;;;;;;16.88;7.82;;;-1.70;99.90;;;;;;5052753;28;20044;-75
2021/01/26 09:35:11;;;;;;;19.40;8.52;;;-1.80;99.90;;;;;;5047523;28;20112;-74
2021/01/26 09:37:37;;;;;;;38.83;10.30;;;-1.80;99.90;;;;;;5040243;28;20488;-75
2021/01/26 09:40:11;;;;;;;21.27;7.25;;;-1.70;99.90;;;;;;5045793;28;20068;-74
2021/01/26 09:42:37;;;;;;;20.92;8.25;;;-1.70;99.90;;;;;;5047353;28;20056;-74
2021/01/26 09:45:07;;;;;;;12.52;6.78;;;-1.50;99.90;;;;;;5042454;28;20335;-74
2021/01/26 09:47:33;;;;;;;18.88;7.55;;;-1.60;99.90;;;;;;5033852;28;20041;-74
2021/01/26 09:50:12;;;;;;;12.05;6.40;;;-1.50;99.90;;;;;;5043119;28;20507;-74
2021/01/26 09:52:39;;;;;;;18.25;7.65;;;-1.50;99.90;;;;;;5064806;28;20024;-74
2021/01/26 09:55:12;;;;;;;16.00;7.43;;;-1.60;99.90;;;;;;5050386;28;20025;-74
2021/01/26 09:57:40;;;;;;;17.15;7.05;;;-1.80;99.90;;;;;;5035794;28;20028;-74
2021/01/26 10:00:20;;;;;;;18.38;7.88;;;-1.70;99.90;;;;;;5060022;28;20108;-75
2021/01/26 10:02:51;;;;;;;19.55;5.82;;;-1.70;99.90;;;;;;5034384;28;20059;-74
2021/01/26 10:05:18;;;;;;;12.45;7.32;;;-1.70;99.90;;;;;;5049121;28;20446;-74
2021/01/26 10:07:44;;;;;;;11.90;6.75;;;-1.80;99.90;;;;;;5026125;28;20389;-73
2021/01/26 10:10:29;;;;;;;10.60;6.20;;;-1.80;99.90;;;;;;5037140;28;20044;-74
2021/01/26 10:12:55;;;;;;;14.80;6.78;;;-1.70;99.90;;;;;;5042131;28;20381;-74
2021/01/26 10:15:23;;;;;;;11.23;6.55;;;-1.70;99.90;;;;;;5054823;28;20047;-74
2021/01/26 10:17:52;;;;;;;11.35;5.25;;;-1.60;99.90;;;;;;5056327;28;20028;-74
2021/01/26 10:20:27;;;;;;;9.75;5.57;;;-1.60;99.90;;;;;;5062570;28;20055;-74
2021/01/26 10:23:12;;;;;;;7.78;4.80;;;-1.50;99.90;;;;;;5059902;28;20028;-75
2021/01/26 10:25:41;;;;;;;10.88;5.25;;;-1.50;99.90;;;;;;5041774;28;20123;-73
2021/01/26 10:28:10;;;;;;;9.25;5.65;;;-1.50;99.90;;;;;;5060756;28;20056;-74
2021/01/26 10:30:44;;;;;;;11.65;4.95;;;-1.40;99.90;;;;;;5060258;28;20032;-74
2021/01/26 10:33:28;;;;;;;7.78;4.35;;;-1.20;99.90;;;;;;5042062;28;20507;-74
2021/01/26 10:35:53;;;;;;;7.90;4.30;;;-1.20;99.90;;;;;;5049739;28;20428;-74
2021/01/26 10:38:31;;;;;;;7.75;4.97;;;-1.20;99.90;;;;;;5039348;28;20082;-75
2021/01/26 10:41:17;;;;;;;11.95;4.90;;;-1.10;99.90;;;;;;5068963;28;20146;-74
2021/01/26 10:43:44;;;;;;;10.50;4.05;;;-1.10;99.90;;;;;;5057017;28;20021;-75
2021/01/26 10:46:27;;;;;;;11.38;4.85;;;-1.10;99.90;;;;;;5053048;28;20100;-75
2021/01/26 10:48:53;;;;;;;7.03;4.30;;;-1.00;99.90;;;;;;5033800;28;20032;-75
2021/01/26 10:51:30;;;;;;;7.85;3.95;;;-1.00;99.90;;;;;;5041384;28;20564;-75
2021/01/26 10:53:56;;;;;;;8.30;4.05;;;-1.00;99.90;;;;;;5041923;28;20112;-75
2021/01/26 10:56:22;;;;;;;5.30;3.50;;;-1.10;99.90;;;;;;5033436;28;20104;-74
2021/01/26 10:58:49;;;;;;;8.70;4.57;;;-1.10;99.90;;;;;;5036540;28;20021;-75
2021/01/26 11:01:20;;;;;;;6.32;3.85;;;-0.90;99.90;;;;;;5066031;28;20036;-75
2021/01/26 11:03:47;;;;;;;6.77;4.03;;;-0.80;99.90;;;;;;5053826;28;20425;-75
2021/01/26 11:06:12;;;;;;;5.57;4.00;;;-0.90;99.90;;;;;;5039286;28;20107;-75
2021/01/26 11:08:39;;;;;;;8.98;3.22;;;-0.80;99.90;;;;;;5049576;28;20104;-75
2021/01/26 11:11:05;;;;;;;16.60;4.72;;;-0.70;99.90;;;;;;5049629;28;20444;-74
2021/01/26 11:13:31;;;;;;;7.80;3.10;;;-0.60;99.90;;;;;;5018923;28;20028;-74
2021/01/26 11:15:57;;;;;;;6.57;3.25;;;-0.60;99.90;;;;;;5040626;28;20512;-74
2021/01/26 11:18:23;;;;;;;6.72;2.65;;;-0.70;99.90;;;;;;5039261;28;20100;-75
2021/01/26 11:20:49;;;;;;;22.88;4.05;;;-0.70;99.90;;;;;;5050418;28;20388;-75
2021/01/26 11:23:15;;;;;;;8.07;3.40;;;-0.60;99.90;;;;;;5035135;28;20040;-75
2021/01/26 11:25:40;;;;;;;8.65;4.10;;;-0.50;99.90;;;;;;5025287;28;20025;-74
2021/01/26 11:28:07;;;;;;;10.43;3.60;;;-0.60;99.90;;;;;;5036667;28;20408;-75
2021/01/26 11:30:33;;;;;;;6.93;3.05;;;-0.40;99.90;;;;;;5042002;28;20026;-75
2021/01/26 11:33:01;;;;;;;8.00;2.92;;;-0.50;99.90;;;;;;5061888;28;20027;-74
2021/01/26 11:35:28;;;;;;;9.90;2.88;;;-0.40;99.90;;;;;;5058943;28;20024;-75
2021/01/26 11:37:54;;;;;;;6.10;3.05;;;-0.40;99.90;;;;;;5068004;28;20016;-75
2021/01/26 11:40:22;;;;;;;6.72;4.03;;;-0.60;99.90;;;;;;5064394;28;20506;-74
2021/01/26 11:42:48;;;;;;;5.00;3.20;;;-0.70;99.90;;;;;;5040039;28;20527;-74
2021/01/26 11:45:22;;;;;;;9.45;4.13;;;-0.60;99.90;;;;;;5042339;28;20184;-75
2021/01/26 11:47:47;;;;;;;7.93;3.80;;;-0.50;99.90;;;;;;5054317;28;20028;-76
2021/01/26 11:50:16;;;;;;;4.80;2.50;;;-0.70;99.90;;;;;;5068524;28;20029;-75
2021/01/26 11:52:41;;;;;;;11.27;3.00;;;-0.70;99.90;;;;;;5063260;28;20028;-75
2021/01/26 11:55:14;;;;;;;5.53;3.13;;;-0.70;99.90;;;;;;5063156;28;20460;-75
2021/01/26 11:57:40;;;;;;;5.28;2.85;;;-0.60;99.90;;;;;;5032237;28;20020;-76
2021/01/26 12:00:08;;;;;;;5.63;2.63;;;-0.50;99.90;;;;;;5057835;28;20384;-76
2021/01/26 12:02:34;;;;;;;6.95;2.65;;;-0.60;99.90;;;;;;5063271;28;20021;-75
2021/01/26 12:05:00;;;;;;;14.05;3.47;;;-0.60;99.90;;;;;;5044364;28;20050;-76
2021/01/26 12:07:25;;;;;;;9.23;3.25;;;-0.40;99.90;;;;;;5059763;28;20028;-75
2021/01/26 12:09:51;;;;;;;7.03;2.65;;;-0.20;99.90;;;;;;5034935;28;20052;-75
2021/01/26 12:12:17;;;;;;;5.70;3.42;;;-0.20;99.90;;;;;;5027740;28;20064;-75
2021/01/26 12:14:42;;;;;;;7.72;3.10;;;-0.30;99.90;;;;;;5064493;28;20028;-75
2021/01/26 12:17:08;;;;;;;5.70;2.95;;;-0.40;99.90;;;;;;5062733;28;20020;-75
2021/01/26 12:19:34;;;;;;;12.55;3.67;;;-0.40;99.90;;;;;;5069662;28;20028;-76
2021/01/26 12:22:00;;;;;;;10.60;2.95;;;-0.30;99.90;;;;;;5062176;28;20473;-75
2021/01/26 12:24:26;;;;;;;9.60;3.05;;;-0.20;99.90;;;;;;5031921;28;20508;-75
2021/01/26 12:26:54;;;;;;;12.88;3.92;;;-0.40;99.90;;;;;;5039113;28;20461;-75
2021/01/26 12:29:19;;;;;;;7.80;3.50;;;-0.40;99.90;;;;;;5044274;28;20477;-74
2021/01/26 12:31:45;;;;;;;12.57;4.95;;;-0.40;99.90;;;;;;5058214;28;20042;-75
2021/01/26 12:34:11;;;;;;;13.02;3.40;;;-0.20;99.90;;;;;;5067958;28;20496;-75
2021/01/26 12:36:37;;;;;;;8.13;3.45;;;-0.20;99.90;;;;;;5044865;28;20021;-74
2021/01/26 12:39:05;;;;;;;6.82;3.03;;;-0.20;99.90;;;;;;5058198;28;20096;-75
2021/01/26 12:41:31;;;;;;;17.13;3.70;;;-0.30;99.90;;;;;;5027429;28;20500;-74
2021/01/26 12:43:58;;;;;;;20.25;2.90;;;-0.20;99.90;;;;;;5026898;28;20323;-75
2021/01/26 12:46:25;;;;;;;17.13;3.13;;;-0.10;99.90;;;;;;5067396;28;20357;-75
2021/01/26 12:48:50;;;;;;;4.85;3.08;;;0.00;99.90;;;;;;5047229;28;20503;-74
2021/01/26 12:51:16;;;;;;;9.95;3.15;;;-0.10;99.90;;;;;;5062346;28;20021;-74
2021/01/26 12:53:42;;;;;;;4.38;2.90;;;-0.10;99.90;;;;;;5062356;28;20021;-74
2021/01/26 12:56:08;;;;;;;7.68;2.47;;;-0.10;99.90;;;;;;5066320;28;20024;-74
2021/01/26 12:58:33;;;;;;;6.70;2.90;;;0.20;99.90;;;;;;5047787;28;20028;-74
2021/01/26 13:00:59;;;;;;;17.70;3.90;;;0.00;99.90;;;;;;5046145;28;20044;-74
2021/01/26 13:03:25;;;;;;;9.10;3.78;;;0.00;99.90;;;;;;5056273;28;20021;-74
2021/01/26 13:05:51;;;;;;;8.27;3.28;;;0.00;99.90;;;;;;5060364;28;20047;-74
2021/01/26 13:08:16;;;;;;;11.00;3.60;;;0.10;99.90;;;;;;5043638;28;20017;-76
2021/01/26 13:10:43;;;;;;;3.58;2.70;;;0.20;99.90;;;;;;5038082;28;20048;-74